Indianapolis International Airport
KIND : now visible

Airfield :











YOU CAN JOIN US ON...

 
LOGIN :

Register | Disclaimer

   EN    FR    IT 

 









Legend :    VFR   Marginal VFR   IFR   Intensive IFR   Very Intensive IFR
Visi :
Ceiling :
>= 8 km
>= 3000ft
5 to 8 km
1000 to 3000 ft
1500m to 5 km
500 to 1000 ft
800 to 1500m
200 to 500 ft
< 800m
< 200 ft
Symbols :   Thunderstorms  Fog  Heavy snow  Heavy precipitations  Wind > 20 kt






- Airport Elevation : 797 ft
- IATA code : IND


KIND - Indianapolis International

CURRENT METAR :
  • 231754Z 14006KT 10SM SCT250 M02/M11 A3039 RMK AO2 SLP302 T10221106 11017 21111 58000

EXPIRED METARs :
  • 231654Z 13006KT 10SM SCT250 M04/M12 A3041 RMK AO2 SLP310 T10391117
  • 231554Z 11007KT 10SM SCT250 M06/M12 A3041 RMK AO2 SLP308 T10561117

TAF KIND
Valid from the 23 at 18:00 until the 25 at 00:00 UTC


231720Z 2318/2424 12007KT P6SM FEW250
FM241500 15009KT P6SM OVC030
FM241700 16007KT P6SM OVC015
FM241800 16006KT P6SM BKN008
KZID FIR / North America



MET'MAP, your aeronautical weather chart ! - Copyright ORBIFLY December 2007 - Disclaimer

ORBIFLY MET'MAP TEAM :

Programming & Development : Alexandra Zaïnal
Concept & original design : Baudouin d'Aumeries
Assistance for programming : Marc-Olivier Méhu
Technical & hardware support : Manuel Goepfert

Contact : metmap@orbifly.com




SOURCES & CREDITS :

   NOAA       Earth
Advisory